createdAt,value
2023-02-11T00:01:45.335Z,68.03
2023-02-11T00:05:07.167Z,69.87
2023-02-11T00:08:28.847Z,69.91
2023-02-11T00:11:50.393Z,69.94
2023-02-11T00:15:14.067Z,70.36
2023-02-11T00:18:36.464Z,69.23
2023-02-11T00:21:58.081Z,69.86
2023-02-11T00:25:19.730Z,70.82
2023-02-11T00:28:41.827Z,69.82
2023-02-11T00:32:05.323Z,69.97
2023-02-11T00:35:26.966Z,70.99
2023-02-11T00:38:50.018Z,70.52
2023-02-11T00:42:14.846Z,68.67
2023-02-11T00:45:36.461Z,69.00
2023-02-11T00:48:58.103Z,69.34
2023-02-11T00:52:22.243Z,68.33
2023-02-11T00:55:46.920Z,70.48
2023-02-11T00:59:09.197Z,70.07
2023-02-11T01:02:30.864Z,70.55
2023-02-11T01:05:56.096Z,70.72
2023-02-11T01:09:17.899Z,69.51
2023-02-11T01:12:42.664Z,69.75
2023-02-11T01:16:07.725Z,69.89
2023-02-11T01:19:29.403Z,68.86
2023-02-11T01:22:51.068Z,69.74
2023-02-11T01:26:15.856Z,70.68
2023-02-11T01:29:37.443Z,70.41
2023-02-11T01:33:01.212Z,70.42
2023-02-11T01:36:22.873Z,70.38
2023-02-11T01:39:49.126Z,69.38
2023-02-11T01:43:12.027Z,70.26
2023-02-11T01:46:35.517Z,71.02
2023-02-11T01:49:59.343Z,69.87
2023-02-11T01:53:40.123Z,69.92
2023-02-11T01:57:21.972Z,69.96
2023-02-11T02:00:44.050Z,69.71
2023-02-11T02:04:07.416Z,69.80
2023-02-11T02:07:36.027Z,69.47
2023-02-11T02:11:00.902Z,69.14
2023-02-11T02:14:22.505Z,69.13
2023-02-11T02:18:07.223Z,68.13
2023-02-11T02:21:58.249Z,68.63
2023-02-11T02:25:48.722Z,68.63
2023-02-11T02:29:10.478Z,69.30
2023-02-11T02:32:56.731Z,68.78
2023-02-11T02:36:40.582Z,69.31
2023-02-11T02:40:09.957Z,69.37
2023-02-11T02:43:32.848Z,71.21
2023-02-11T02:46:59.867Z,71.68
2023-02-11T02:50:30.350Z,70.67
2023-02-11T02:53:57.815Z,71.57
2023-02-11T02:57:28.108Z,71.73
2023-02-11T03:01:08.211Z,71.69
2023-02-11T03:04:35.946Z,70.38
2023-02-11T03:08:01.401Z,69.27
2023-02-11T03:11:24.431Z,69.91
2023-02-11T03:14:51.373Z,71.65
2023-02-11T03:18:17.054Z,71.83
2023-02-11T03:21:42.755Z,72.02
2023-02-11T03:25:04.985Z,72.58
2023-02-11T03:28:35.456Z,71.02
2023-02-11T03:32:16.126Z,70.04
2023-02-11T03:35:56.299Z,70.33
2023-02-11T03:40:02.475Z,70.29
2023-02-11T03:43:38.910Z,69.16
2023-02-11T03:47:02.002Z,69.28
2023-02-11T03:50:28.132Z,69.85
2023-02-11T03:53:52.389Z,69.42
2023-02-11T03:57:13.975Z,69.19
2023-02-11T04:00:39.533Z,68.85
2023-02-11T04:04:01.420Z,68.84
2023-02-11T04:07:23.598Z,68.89
2023-02-11T04:10:52.524Z,68.89
2023-02-11T04:14:14.158Z,69.23
2023-02-11T04:17:38.076Z,69.01
2023-02-11T04:20:59.685Z,70.60
2023-02-11T04:24:23.475Z,70.97
2023-02-11T04:27:45.043Z,70.25
2023-02-11T04:31:12.139Z,70.79
2023-02-11T04:34:36.084Z,70.95
2023-02-11T04:38:00.141Z,70.13
2023-02-11T04:41:23.954Z,69.56
2023-02-11T04:44:45.618Z,70.26
2023-02-11T04:48:07.243Z,71.70
2023-02-11T04:51:28.875Z,70.46
2023-02-11T04:54:52.958Z,71.76
2023-02-11T04:58:14.600Z,70.97
2023-02-11T05:01:36.485Z,70.95
2023-02-11T05:05:00.609Z,72.36
2023-02-11T05:08:27.038Z,72.41
2023-02-11T05:11:48.941Z,71.64
2023-02-11T05:15:10.553Z,71.28
2023-02-11T05:18:32.144Z,71.29
2023-02-11T05:22:02.647Z,71.59
2023-02-11T05:25:27.378Z,70.62
2023-02-11T05:28:51.446Z,72.60
2023-02-11T05:32:15.308Z,73.45
2023-02-11T05:35:39.378Z,73.61
2023-02-11T05:39:04.037Z,73.11
2023-02-11T05:42:25.677Z,73.06
2023-02-11T05:45:50.230Z,71.30
2023-02-11T05:49:12.257Z,70.68
2023-02-11T05:52:33.869Z,70.48
2023-02-11T05:55:55.676Z,71.31
2023-02-11T05:59:19.861Z,71.17
2023-02-11T06:02:43.813Z,70.22
2023-02-11T06:06:10.881Z,71.47
2023-02-11T06:09:32.468Z,71.12
2023-02-11T06:12:56.422Z,70.36
2023-02-11T06:16:20.374Z,70.99
2023-02-11T06:19:42.102Z,71.11
2023-02-11T06:23:03.698Z,70.73
2023-02-11T06:26:25.665Z,71.07
2023-02-11T06:29:50.032Z,71.49
2023-02-11T06:33:11.650Z,71.49
2023-02-11T06:36:36.303Z,72.29
2023-02-11T06:39:57.890Z,71.36
2023-02-11T06:43:21.649Z,71.10
2023-02-11T06:46:45.396Z,71.22
2023-02-11T06:50:11.163Z,71.35
2023-02-11T06:53:41.515Z,71.64
2023-02-11T06:57:03.058Z,73.59
2023-02-11T07:00:24.819Z,73.35
2023-02-11T07:03:46.991Z,73.08
2023-02-11T07:07:08.896Z,72.08
2023-02-11T07:10:30.506Z,72.45
2023-02-11T07:13:54.623Z,71.85
2023-02-11T07:17:19.195Z,72.67
2023-02-11T07:20:43.149Z,72.92
2023-02-11T07:24:11.082Z,72.85
2023-02-11T07:27:33.244Z,72.52
2023-02-11T07:30:57.436Z,73.39
2023-02-11T07:34:19.145Z,72.62
2023-02-11T07:37:43.644Z,72.25
2023-02-11T07:41:07.666Z,70.80
2023-02-11T07:44:29.295Z,70.45
2023-02-11T07:47:50.904Z,83.23
2023-02-11T07:51:17.261Z,85.47
2023-02-11T07:54:38.842Z,81.80
2023-02-11T07:58:03.931Z,77.90
2023-02-11T08:01:28.778Z,74.90
2023-02-11T08:04:50.797Z,70.50
2023-02-11T08:08:12.648Z,66.42
2023-02-11T08:11:34.250Z,66.51
2023-02-11T08:14:56.435Z,68.56
2023-02-11T08:18:20.577Z,69.22
2023-02-11T08:21:44.971Z,69.29
2023-02-11T08:25:09.123Z,69.96
2023-02-11T08:28:30.874Z,69.19
2023-02-11T08:31:52.600Z,69.52
2023-02-11T08:35:17.007Z,69.39
2023-02-11T08:38:41.061Z,69.36
2023-02-11T08:42:02.707Z,69.57
2023-02-11T08:45:27.307Z,69.48
2023-02-11T08:48:48.924Z,69.82
2023-02-11T08:52:10.606Z,71.85
2023-02-11T08:55:32.226Z,77.72
2023-02-11T08:58:54.708Z,75.19
2023-02-11T09:02:21.433Z,71.67
2023-02-11T09:05:47.921Z,68.80
2023-02-11T09:09:13.781Z,66.86
2023-02-11T09:12:40.182Z,63.74
2023-02-11T09:16:05.954Z,58.14
2023-02-11T09:19:29.934Z,57.28
2023-02-11T09:22:51.573Z,56.46
2023-02-11T09:26:32.715Z,55.85
2023-02-11T09:29:54.326Z,52.97
2023-02-11T09:33:18.210Z,52.28
2023-02-11T09:36:43.224Z,51.98
2023-02-11T09:40:08.383Z,51.19
2023-02-11T09:43:46.966Z,48.29
2023-02-11T09:47:35.904Z,48.69
2023-02-11T09:51:04.347Z,49.25
2023-02-11T09:54:35.430Z,47.37
2023-02-11T09:57:58.193Z,46.96
2023-02-11T10:01:41.062Z,46.14
2023-02-11T10:05:32.100Z,47.06
2023-02-11T10:09:07.997Z,48.45
2023-02-11T10:12:38.647Z,54.22
2023-02-11T10:16:22.666Z,59.53
2023-02-11T10:20:11.596Z,64.98
2023-02-11T10:23:40.163Z,60.20
2023-02-11T10:27:08.690Z,52.14
2023-02-11T10:30:40.951Z,52.99
2023-02-11T10:34:13.748Z,49.43
2023-02-11T10:37:35.324Z,42.90
2023-02-11T10:40:56.920Z,43.76
2023-02-11T10:44:24.374Z,42.99
2023-02-11T10:47:46.077Z,42.52
2023-02-11T10:51:25.303Z,44.54
2023-02-11T10:54:59.070Z,43.76
2023-02-11T10:58:25.679Z,41.58
2023-02-11T11:01:51.798Z,41.01
2023-02-11T11:05:22.597Z,42.21
2023-02-11T11:08:49.804Z,44.71
2023-02-11T11:12:31.589Z,45.14
2023-02-11T11:16:13.804Z,44.51
2023-02-11T11:19:39.191Z,43.89
2023-02-11T11:23:22.809Z,57.80
2023-02-11T11:26:54.262Z,50.64
2023-02-11T11:30:17.053Z,47.48
2023-02-11T11:33:45.132Z,48.24
2023-02-11T11:37:28.856Z,39.74
2023-02-11T11:41:14.561Z,49.35
2023-02-11T11:44:38.278Z,45.00
2023-02-11T11:48:19.421Z,41.80
2023-02-11T11:51:43.669Z,43.35
2023-02-11T11:55:20.749Z,39.08
2023-02-11T11:58:44.904Z,45.88
2023-02-11T12:02:40.537Z,45.95
2023-02-11T12:06:23.815Z,48.38
2023-02-11T12:10:24.104Z,42.30
2023-02-11T12:13:57.799Z,50.49
2023-02-11T12:17:25.939Z,42.02
2023-02-11T12:21:09.339Z,42.07
2023-02-11T12:24:52.250Z,52.71
2023-02-11T12:28:35.451Z,45.60
2023-02-11T12:32:36.490Z,45.24
2023-02-11T12:36:22.594Z,42.12
2023-02-11T12:39:50.024Z,33.59
2023-02-11T12:43:24.911Z,41.13
2023-02-11T12:47:27.484Z,38.19
2023-02-11T12:50:59.201Z,44.53
2023-02-11T12:54:32.696Z,39.08
2023-02-11T12:58:00.013Z,37.50
2023-02-11T13:01:27.309Z,44.43
2023-02-11T13:04:59.905Z,38.72
2023-02-11T13:08:51.258Z,29.83
2023-02-11T13:12:32.852Z,39.53
2023-02-11T13:16:07.853Z,36.81
2023-02-11T13:19:40.751Z,35.62
2023-02-11T13:23:19.518Z,40.10
2023-02-11T13:26:57.716Z,41.79
2023-02-11T13:30:28.333Z,41.74
2023-02-11T13:33:50.023Z,38.52
2023-02-11T13:37:37.098Z,34.80
2023-02-11T13:41:06.838Z,34.55
2023-02-11T13:44:28.844Z,35.90
2023-02-11T13:47:59.872Z,36.07
2023-02-11T13:51:44.936Z,36.72
2023-02-11T13:55:22.557Z,37.85
2023-02-11T13:58:51.920Z,38.85
2023-02-11T14:02:55.045Z,38.89
2023-02-11T14:06:38.599Z,38.31
2023-02-11T14:10:02.424Z,38.47
2023-02-11T14:13:31.565Z,38.22
2023-02-11T14:17:02.310Z,39.40
2023-02-11T14:20:43.321Z,39.57
2023-02-11T14:24:05.032Z,39.55
2023-02-11T14:27:41.720Z,40.43
2023-02-11T14:31:10.627Z,40.03
2023-02-11T14:35:09.779Z,41.62
2023-02-11T14:38:52.944Z,40.44
2023-02-11T14:42:25.476Z,41.68
2023-02-11T14:45:52.105Z,40.21
2023-02-11T14:49:36.434Z,41.63
2023-02-11T14:53:01.405Z,41.05
2023-02-11T14:56:27.939Z,42.12
2023-02-11T15:00:05.608Z,42.61
2023-02-11T15:03:32.523Z,41.67
2023-02-11T15:06:55.538Z,42.15
2023-02-11T15:10:39.620Z,42.46
2023-02-11T15:14:11.963Z,42.41
2023-02-11T15:17:36.344Z,42.21
2023-02-11T15:21:00.235Z,42.52
2023-02-11T15:24:30.892Z,43.36
2023-02-11T15:27:57.119Z,43.86
2023-02-11T15:31:23.673Z,43.60
2023-02-11T15:34:46.769Z,44.08
2023-02-11T15:38:12.768Z,43.16
2023-02-11T15:41:37.758Z,44.61
2023-02-11T15:45:11.749Z,52.49
2023-02-11T15:48:40.132Z,53.79
2023-02-11T15:52:02.917Z,48.11
2023-02-11T15:55:27.238Z,50.17
2023-02-11T15:58:52.183Z,50.24
2023-02-11T16:02:20.944Z,50.97
2023-02-11T16:05:42.437Z,47.20
2023-02-11T16:09:07.770Z,42.66
2023-02-11T16:12:30.178Z,43.17
2023-02-11T16:16:04.743Z,44.19
2023-02-11T16:19:28.131Z,44.95
2023-02-11T16:22:49.841Z,45.53
2023-02-11T16:26:37.728Z,45.97
2023-02-11T16:29:59.566Z,46.22
2023-02-11T16:33:23.439Z,46.21
2023-02-11T16:36:46.604Z,46.12
2023-02-11T16:40:09.894Z,46.37
2023-02-11T16:43:31.590Z,46.94
2023-02-11T16:46:53.739Z,47.15
2023-02-11T16:50:24.287Z,48.11
2023-02-11T16:53:45.869Z,48.05
2023-02-11T16:57:30.332Z,46.64
2023-02-11T17:00:52.818Z,47.29
2023-02-11T17:04:27.498Z,47.80
2023-02-11T17:07:49.733Z,56.23
2023-02-11T17:11:11.537Z,57.14
2023-02-11T17:14:33.077Z,55.25
2023-02-11T17:17:56.899Z,53.80
2023-02-11T17:21:18.674Z,54.60
2023-02-11T17:24:45.218Z,53.09
2023-02-11T17:28:08.316Z,52.83
2023-02-11T17:31:30.116Z,45.54
2023-02-11T17:34:53.172Z,46.07
2023-02-11T17:38:18.074Z,47.05
2023-02-11T17:41:40.735Z,48.15
2023-02-11T17:45:02.378Z,47.74
2023-02-11T17:48:24.592Z,48.02
2023-02-11T17:51:48.795Z,48.66
2023-02-11T17:55:10.480Z,49.48
2023-02-11T17:58:32.287Z,49.86
2023-02-11T18:01:56.640Z,50.43
2023-02-11T18:05:20.572Z,50.32
2023-02-11T18:08:45.136Z,50.34
2023-02-11T18:12:10.792Z,50.31
2023-02-11T18:15:33.591Z,49.81
2023-02-11T18:19:00.958Z,50.00
2023-02-11T18:22:23.168Z,51.38
2023-02-11T18:25:47.059Z,51.35
2023-02-11T18:29:13.369Z,62.25
2023-02-11T18:32:37.492Z,57.42
2023-02-11T18:36:06.934Z,58.72
2023-02-11T18:39:31.329Z,55.94
2023-02-11T18:42:55.673Z,56.60
2023-02-11T18:46:20.424Z,51.58
2023-02-11T18:49:41.997Z,46.76
2023-02-11T18:53:03.603Z,47.76
2023-02-11T18:56:27.844Z,49.55
2023-02-11T18:59:50.713Z,49.62
2023-02-11T19:03:12.364Z,50.18
2023-02-11T19:06:36.588Z,50.32
2023-02-11T19:09:58.759Z,50.48
2023-02-11T19:13:20.396Z,50.40
2023-02-11T19:16:44.201Z,49.78
2023-02-11T19:20:06.852Z,51.06
2023-02-11T19:23:28.409Z,50.51
2023-02-11T19:26:55.393Z,51.20
2023-02-11T19:30:17.113Z,51.16
2023-02-11T19:33:38.700Z,53.57
2023-02-11T19:37:01.686Z,53.50
2023-02-11T19:40:26.082Z,52.43
2023-02-11T19:43:53.019Z,52.18
2023-02-11T19:47:14.815Z,51.97
2023-02-11T19:50:36.348Z,51.18
2023-02-11T19:53:58.602Z,51.14
2023-02-11T19:57:20.178Z,51.21
2023-02-11T20:00:44.250Z,51.03
2023-02-11T20:04:08.655Z,51.68
2023-02-11T20:07:32.760Z,51.59
2023-02-11T20:10:54.341Z,52.54
2023-02-11T20:14:16.107Z,53.01
2023-02-11T20:17:37.674Z,53.40
2023-02-11T20:21:01.737Z,53.47
2023-02-11T20:24:26.124Z,53.66
2023-02-11T20:27:47.707Z,54.29
2023-02-11T20:31:11.085Z,53.75
2023-02-11T20:34:33.209Z,54.60
2023-02-11T20:37:54.783Z,54.59
2023-02-11T20:41:25.448Z,54.97
2023-02-11T20:44:47.059Z,55.55
2023-02-11T20:48:08.727Z,55.61
2023-02-11T20:51:33.975Z,56.08
2023-02-11T20:54:57.778Z,56.36
2023-02-11T20:58:19.345Z,57.12
2023-02-11T21:01:44.490Z,57.13
2023-02-11T21:05:06.469Z,57.46
2023-02-11T21:08:28.112Z,58.27
2023-02-11T21:11:51.722Z,58.64
2023-02-11T21:15:15.906Z,59.22
2023-02-11T21:18:37.769Z,60.44
2023-02-11T21:22:00.959Z,60.21
2023-02-11T21:25:24.945Z,60.56
2023-02-11T21:28:46.645Z,61.26
2023-02-11T21:32:11.048Z,61.44
2023-02-11T21:35:37.273Z,61.81
2023-02-11T21:39:00.112Z,62.26
2023-02-11T21:42:24.070Z,63.24
2023-02-11T21:45:49.853Z,63.45
2023-02-11T21:49:11.500Z,63.41
2023-02-11T21:52:36.548Z,64.32
2023-02-11T21:56:10.112Z,65.24
2023-02-11T21:59:31.945Z,65.13
2023-02-11T22:02:53.657Z,65.54
2023-02-11T22:06:18.408Z,65.95
2023-02-11T22:09:43.061Z,65.83
2023-02-11T22:13:04.873Z,65.36
2023-02-11T22:16:27.489Z,65.65
2023-02-11T22:19:56.700Z,65.13
2023-02-11T22:23:18.286Z,66.19
2023-02-11T22:26:39.906Z,67.24
2023-02-11T22:30:02.700Z,67.18
2023-02-11T22:33:25.529Z,66.45
2023-02-11T22:36:47.413Z,66.32
2023-02-11T22:40:09.355Z,65.99
2023-02-11T22:43:31.400Z,67.13
2023-02-11T22:46:53.733Z,68.35
2023-02-11T22:50:17.587Z,67.85
2023-02-11T22:53:39.547Z,67.61
2023-02-11T22:57:01.301Z,68.38
2023-02-11T23:00:30.778Z,69.27
2023-02-11T23:03:54.683Z,69.73
2023-02-11T23:07:16.617Z,70.40
2023-02-11T23:10:41.925Z,70.13
2023-02-11T23:14:03.987Z,70.29
2023-02-11T23:17:26.242Z,70.28
2023-02-11T23:20:47.906Z,70.41
2023-02-11T23:24:16.807Z,70.57
2023-02-11T23:27:40.829Z,70.98
2023-02-11T23:31:15.278Z,70.75
2023-02-11T23:34:39.157Z,71.17
2023-02-11T23:38:00.838Z,71.36
2023-02-11T23:41:25.376Z,71.25
2023-02-11T23:44:49.585Z,70.91
2023-02-11T23:48:13.713Z,71.15
2023-02-11T23:51:35.436Z,71.40
2023-02-11T23:54:57.009Z,72.50
2023-02-11T23:58:20.877Z,72.74
